KMVE/MVE METAR and TAF weather

Enter ICAO airport designator
Station Type Date Time Source
KMVE METAR 2021/05/11 17:35 UTC NOAA

KMVE 111735Z AUTO 16003KT 10SM CLR 13/M12 A3039 RMK AO2


Station Type Date Time Source
KMVE Decoded METAR 2021/05/11 17:35 UTC NOAA

Montevideo, Montevideo-Chippewa County Airport, MN, United States (KMVE) 44-58N 095-43W
May 11, 2021 - 01:35 PM EDT / 2021.05.11 1735 UTC
Wind: from the SSE (160 degrees) at 3 MPH (3 KT):0
Visibility: 10 mile(s):0
Sky conditions: clear
Temperature: 55 F (13 C)
Dew Point: 10 F (-12 C)
Relative Humidity: 16%
Pressure (altimeter): 30.39 in. Hg (1029 hPa)
ob: KMVE 111735Z AUTO 16003KT 10SM CLR 13/M12 A3039 RMK AO2
cycle: 17

Station Type Date Time Source
KMVE TAF UTC NOAA

Error!

Example: see airport list